Airfield :
LOGIN :

Register | Disclaimer

   EN    FR    IT 

 










Legend :    VFR   Marginal VFR   IFR   Intensive IFR   Very Intensive IFR
Visi :
Ceiling :
>= 8 km
>= 3000ft
5 to 8 km
1000 to 3000 ft
1500m to 5 km
500 to 1000 ft
800 to 1500m
200 to 500 ft
< 800m
< 200 ft
Symbols :   Thunderstorms  Fog  Heavy snow  Heavy precipitations  Wind > 20 kt
SIGMETs :     Misc.  Thunderstorms  Icing  Turbulence  Mountain Waves  Volcanic Ashes







- Airport Elevation : 1649 ft
- IATA code : HHN


EDFH - Frankfurt-Hahn Rhineland-Palatinate

CURRENT METAR :
  • 191120Z 17004KT 140V230 9999 BKN014 M01/M04 Q1018

EXPIRED METARs :
  • 191050Z 17006KT 140V230 9999 BKN014 M01/M04 Q1018
  • 191020Z 18004KT 150V210 9999 BKN012 M01/M04 Q1018
  • 190950Z 15006KT 9999 BKN011 M02/M04 Q1018
  • 190920Z 14004KT 110V170 9999 BKN011 M02/M04 Q1018
  • 190850Z 15005KT 120V190 9999 BKN011 M02/M04 Q1018

TAF TAF EDFH
Valid from the 19 at 12:00 until the 20 at 12:00 UTC


191100Z 1912/2012 16005KT 9999 BKN015
TEMPO 1912/1921 BKN012
TEMPO 1921/2008 BKN008
TEMPO 2003/2009 4000 BR
No reported NOTAMs for that airfield.



MET'MAP, your aeronautical weather chart ! - Copyright ORBIFLY December 2007 - Disclaimer

ORBIFLY MET'MAP TEAM :

Programming & Development : Alexandra Zaïnal
Concept & Development : Baudouin d'Aumeries
Co-Development & Prog : Marc-Olivier Méhu
Technical & hardware support : Manuel Goepfert

Contact : metmap@orbifly.com




SOURCES & CREDITS :

   NOAA